createdAt,value
2023-02-25T00:01:57.856Z,15.45
2023-02-25T00:04:32.273Z,12.25
2023-02-25T00:07:02.232Z,11.15
2023-02-25T00:09:31.245Z,11.35
2023-02-25T00:12:00.321Z,11.40
2023-02-25T00:14:29.246Z,12.43
2023-02-25T00:16:57.808Z,11.23
2023-02-25T00:19:27.038Z,12.77
2023-02-25T00:21:55.975Z,10.02
2023-02-25T00:24:26.356Z,14.73
2023-02-25T00:26:54.890Z,13.70
2023-02-25T00:29:23.872Z,15.35
2023-02-25T00:31:53.054Z,16.23
2023-02-25T00:34:22.103Z,10.57
2023-02-25T00:36:50.746Z,14.90
2023-02-25T00:39:19.827Z,13.20
2023-02-25T00:41:49.693Z,17.05
2023-02-25T00:44:18.298Z,11.52
2023-02-25T00:46:47.156Z,10.82
2023-02-25T00:49:31.383Z,8.82
2023-02-25T00:52:01.582Z,12.02
2023-02-25T00:54:31.002Z,13.57
2023-02-25T00:57:01.151Z,14.82
2023-02-25T00:59:29.768Z,12.10
2023-02-25T01:01:58.433Z,13.57
2023-02-25T01:04:27.114Z,15.18
2023-02-25T01:06:55.803Z,13.90
2023-02-25T01:09:24.419Z,12.68
2023-02-25T01:11:53.719Z,13.93
2023-02-25T01:14:26.263Z,13.80
2023-02-25T01:16:57.773Z,16.60
2023-02-25T01:19:27.532Z,12.00
2023-02-25T01:21:58.024Z,12.40
2023-02-25T01:24:28.342Z,16.60
2023-02-25T01:26:58.821Z,10.50
2023-02-25T01:29:30.310Z,9.50
2023-02-25T01:32:00.672Z,12.07
2023-02-25T01:34:29.999Z,16.27
2023-02-25T01:36:59.167Z,11.38
2023-02-25T01:39:28.697Z,12.10
2023-02-25T01:41:58.896Z,12.85
2023-02-25T01:44:32.736Z,9.93
2023-02-25T01:47:01.924Z,11.13
2023-02-25T01:49:36.247Z,14.00
2023-02-25T01:52:09.544Z,9.43
2023-02-25T01:54:39.225Z,13.93
2023-02-25T01:57:10.844Z,18.55
2023-02-25T01:59:42.304Z,11.25
2023-02-25T02:02:13.154Z,9.35
2023-02-25T02:04:43.729Z,17.20
2023-02-25T02:07:14.408Z,12.02
2023-02-25T02:09:55.998Z,11.30
2023-02-25T02:12:26.618Z,10.40
2023-02-25T02:14:59.453Z,10.73
2023-02-25T02:17:34.666Z,9.57
2023-02-25T02:20:13.065Z,16.17
2023-02-25T02:22:50.165Z,7.90
2023-02-25T02:25:42.772Z,14.43
2023-02-25T02:28:38.857Z,8.95
2023-02-25T02:31:42.513Z,10.23
2023-02-25T02:34:26.036Z,7.68
2023-02-25T02:37:07.511Z,10.23
2023-02-25T02:39:50.124Z,11.18
2023-02-25T02:42:29.647Z,9.55
2023-02-25T02:45:05.096Z,15.32
2023-02-25T02:47:37.867Z,14.73
2023-02-25T02:50:12.496Z,14.60
2023-02-25T02:52:46.910Z,15.63
2023-02-25T02:55:23.061Z,9.65
2023-02-25T02:57:59.045Z,15.85
2023-02-25T03:00:31.766Z,9.43
2023-02-25T03:03:06.273Z,13.10
2023-02-25T03:05:38.028Z,9.80
2023-02-25T03:08:11.285Z,11.63
2023-02-25T03:10:39.954Z,11.45
2023-02-25T03:13:08.600Z,8.45
2023-02-25T03:15:41.074Z,9.73
2023-02-25T03:18:19.296Z,15.75
2023-02-25T03:20:51.305Z,8.90
2023-02-25T03:23:26.939Z,14.65
2023-02-25T03:26:01.853Z,13.15
2023-02-25T03:28:34.870Z,11.13
2023-02-25T03:31:10.736Z,14.10
2023-02-25T03:33:47.998Z,13.18
2023-02-25T03:36:20.365Z,19.63
2023-02-25T03:38:55.026Z,10.35
2023-02-25T03:41:30.493Z,8.05
2023-02-25T03:44:07.310Z,13.23
2023-02-25T03:46:38.313Z,14.40
2023-02-25T03:49:10.483Z,10.27
2023-02-25T03:51:42.393Z,12.23
2023-02-25T03:54:10.986Z,14.30
2023-02-25T03:56:44.908Z,11.77
2023-02-25T03:59:13.669Z,7.80
2023-02-25T04:01:44.560Z,16.33
2023-02-25T04:04:14.619Z,15.55
2023-02-25T04:06:43.605Z,14.13
2023-02-25T04:09:12.792Z,12.63
2023-02-25T04:11:41.420Z,11.18
2023-02-25T04:14:10.102Z,13.10
2023-02-25T04:16:38.809Z,10.07
2023-02-25T04:19:07.459Z,15.38
2023-02-25T04:21:39.414Z,8.93
2023-02-25T04:24:08.784Z,8.82
2023-02-25T04:26:37.879Z,17.23
2023-02-25T04:29:06.575Z,14.10
2023-02-25T04:31:35.237Z,16.48
2023-02-25T04:34:03.882Z,9.82
2023-02-25T04:36:34.404Z,12.23
2023-02-25T04:39:06.753Z,12.07
2023-02-25T04:41:36.802Z,11.73
2023-02-25T04:44:06.926Z,14.50
2023-02-25T04:46:38.709Z,11.52
2023-02-25T04:49:09.513Z,7.18
2023-02-25T04:51:40.318Z,12.57
2023-02-25T04:54:10.251Z,12.52
2023-02-25T04:56:39.647Z,11.27
2023-02-25T04:59:11.330Z,12.02
2023-02-25T05:01:40.147Z,12.23
2023-02-25T05:04:08.768Z,7.38
2023-02-25T05:06:37.333Z,7.90
2023-02-25T05:09:09.310Z,6.35
2023-02-25T05:11:40.274Z,13.23
2023-02-25T05:14:08.767Z,7.75
2023-02-25T05:16:37.610Z,10.45
2023-02-25T05:19:06.272Z,12.07
2023-02-25T05:21:34.902Z,8.70
2023-02-25T05:24:04.035Z,6.90
2023-02-25T05:26:32.538Z,12.15
2023-02-25T05:29:02.487Z,10.18
2023-02-25T05:31:31.715Z,12.60
2023-02-25T05:34:00.290Z,9.27
2023-02-25T05:36:29.498Z,15.32
2023-02-25T05:39:02.708Z,9.82
2023-02-25T05:41:31.894Z,14.20
2023-02-25T05:44:01.829Z,12.88
2023-02-25T05:46:30.450Z,10.90
2023-02-25T05:48:59.111Z,10.50
2023-02-25T05:51:27.971Z,12.57
2023-02-25T05:53:58.199Z,12.48
2023-02-25T05:56:30.225Z,14.93
2023-02-25T05:59:02.084Z,11.10
2023-02-25T06:01:31.688Z,12.07
2023-02-25T06:04:01.191Z,10.63
2023-02-25T06:06:32.028Z,12.88
2023-02-25T06:09:00.844Z,12.57
2023-02-25T06:11:31.434Z,10.68
2023-02-25T06:14:02.053Z,7.30
2023-02-25T06:16:32.690Z,9.70
2023-02-25T06:19:02.800Z,11.80
2023-02-25T06:21:34.967Z,10.80
2023-02-25T06:24:05.614Z,11.05
2023-02-25T06:26:35.431Z,13.88
2023-02-25T06:29:05.494Z,14.18
2023-02-25T06:31:34.511Z,8.20
2023-02-25T06:34:03.106Z,16.45
2023-02-25T06:36:32.072Z,12.90
2023-02-25T06:39:00.746Z,11.63
2023-02-25T06:41:29.527Z,8.77
2023-02-25T06:43:58.165Z,13.38
2023-02-25T06:46:28.404Z,14.45
2023-02-25T06:48:57.332Z,15.98
2023-02-25T06:51:25.925Z,7.70
2023-02-25T06:53:54.718Z,10.13
2023-02-25T06:56:23.756Z,12.90
2023-02-25T06:58:53.271Z,13.48
2023-02-25T07:01:21.956Z,6.03
2023-02-25T07:03:51.990Z,19.05
2023-02-25T07:06:20.846Z,11.07
2023-02-25T07:08:49.507Z,10.80
2023-02-25T07:11:30.064Z,10.32
2023-02-25T07:13:59.038Z,13.48
2023-02-25T07:16:29.866Z,11.43
2023-02-25T07:19:01.685Z,21.35
2023-02-25T07:21:31.030Z,17.20
2023-02-25T07:23:59.965Z,12.90
2023-02-25T07:26:29.263Z,12.00
2023-02-25T07:28:58.616Z,12.60
2023-02-25T07:31:29.396Z,13.90
2023-02-25T07:34:03.478Z,15.52
2023-02-25T07:36:33.660Z,9.43
2023-02-25T07:39:04.168Z,16.55
2023-02-25T07:41:32.807Z,11.93
2023-02-25T07:44:04.896Z,18.38
2023-02-25T07:46:34.441Z,16.73
2023-02-25T07:49:04.649Z,16.98
2023-02-25T07:51:33.334Z,10.52
2023-02-25T07:54:02.153Z,15.63
2023-02-25T07:56:31.804Z,15.18
2023-02-25T07:59:01.255Z,13.00
2023-02-25T08:01:33.047Z,13.20
2023-02-25T08:04:06.342Z,10.85
2023-02-25T08:06:38.431Z,10.63
2023-02-25T08:09:07.456Z,8.75
2023-02-25T08:11:36.494Z,10.75
2023-02-25T08:14:05.958Z,13.30
2023-02-25T08:16:34.851Z,9.00
2023-02-25T08:19:05.631Z,10.48
2023-02-25T08:21:34.786Z,18.30
2023-02-25T08:24:03.308Z,13.80
2023-02-25T08:26:32.046Z,15.30
2023-02-25T08:29:00.767Z,14.07
2023-02-25T08:31:29.789Z,13.32
2023-02-25T08:33:59.549Z,12.13
2023-02-25T08:36:31.475Z,13.38
2023-02-25T08:39:00.914Z,9.95
2023-02-25T08:41:30.495Z,10.10
2023-02-25T08:44:01.276Z,10.00
2023-02-25T08:46:32.964Z,12.85
2023-02-25T08:49:01.666Z,14.80
2023-02-25T08:51:34.952Z,11.90
2023-02-25T08:54:06.819Z,14.43
2023-02-25T08:56:36.559Z,13.55
2023-02-25T08:59:06.153Z,11.50
2023-02-25T09:01:45.603Z,21.42
2023-02-25T09:04:15.762Z,13.90
2023-02-25T09:06:47.450Z,18.13
2023-02-25T09:09:17.138Z,13.23
2023-02-25T09:11:46.779Z,12.68
2023-02-25T09:14:15.665Z,13.70
2023-02-25T09:16:44.384Z,7.95
2023-02-25T09:19:15.708Z,18.52
2023-02-25T09:21:47.997Z,18.33
2023-02-25T09:24:17.618Z,18.85
2023-02-25T09:26:46.384Z,5.10
2023-02-25T09:29:15.318Z,13.88
2023-02-25T09:31:44.111Z,15.95
2023-02-25T09:34:15.726Z,16.45
2023-02-25T09:36:45.724Z,10.88
2023-02-25T09:39:14.683Z,12.00
2023-02-25T09:41:51.020Z,15.57
2023-02-25T09:44:22.344Z,20.67
2023-02-25T09:46:54.446Z,17.77
2023-02-25T09:49:29.326Z,12.90
2023-02-25T09:52:05.893Z,13.68
2023-02-25T09:54:39.516Z,19.70
2023-02-25T09:57:12.999Z,11.77
2023-02-25T09:59:41.583Z,14.20
2023-02-25T10:02:23.451Z,10.63
2023-02-25T10:05:06.460Z,16.77
2023-02-25T10:07:43.363Z,15.57
2023-02-25T10:10:21.247Z,10.50
2023-02-25T10:13:00.888Z,12.98
2023-02-25T10:15:39.587Z,19.30
2023-02-25T10:18:23.594Z,11.05
2023-02-25T10:21:07.647Z,11.20
2023-02-25T10:23:52.038Z,8.45
2023-02-25T10:26:23.542Z,10.13
2023-02-25T10:28:56.251Z,6.95
2023-02-25T10:31:25.207Z,6.18
2023-02-25T10:33:55.042Z,8.10
2023-02-25T10:36:28.796Z,11.18
2023-02-25T10:38:59.210Z,12.32
2023-02-25T10:41:28.179Z,16.55
2023-02-25T10:43:57.098Z,9.43
2023-02-25T10:46:34.066Z,13.50
2023-02-25T10:49:16.308Z,14.70
2023-02-25T10:52:03.214Z,10.80
2023-02-25T10:54:35.335Z,13.02
2023-02-25T10:57:15.187Z,16.05
2023-02-25T10:59:45.507Z,14.15
2023-02-25T11:02:23.968Z,11.60
2023-02-25T11:04:53.707Z,13.35
2023-02-25T11:07:32.992Z,12.90
2023-02-25T11:10:16.172Z,12.43
2023-02-25T11:12:46.315Z,11.70
2023-02-25T11:15:44.416Z,17.80
2023-02-25T11:18:29.778Z,10.57
2023-02-25T11:21:00.662Z,15.27
2023-02-25T11:23:33.663Z,13.88
2023-02-25T11:26:06.573Z,12.35
2023-02-25T11:28:40.087Z,10.57
2023-02-25T11:31:12.198Z,11.23
2023-02-25T11:33:45.337Z,12.40
2023-02-25T11:36:14.217Z,15.73
2023-02-25T11:38:43.994Z,11.88
2023-02-25T11:41:21.450Z,17.45
2023-02-25T11:43:50.728Z,5.78
2023-02-25T11:46:23.474Z,3.33
2023-02-25T11:48:56.800Z,5.53
2023-02-25T11:51:28.506Z,3.33
2023-02-25T11:54:22.583Z,4.25
2023-02-25T11:56:56.524Z,6.53
2023-02-25T11:59:38.306Z,4.10
2023-02-25T12:02:24.787Z,5.13
2023-02-25T12:05:23.791Z,7.88
2023-02-25T12:08:13.049Z,4.63
2023-02-25T12:11:12.994Z,6.13
2023-02-25T12:14:04.000Z,5.28
2023-02-25T12:17:05.937Z,7.43
2023-02-25T12:20:08.674Z,4.13
2023-02-25T12:23:13.906Z,2.85
2023-02-25T12:25:51.394Z,3.78
2023-02-25T12:28:41.666Z,7.00
2023-02-25T12:31:58.134Z,3.92
2023-02-25T12:34:57.503Z,4.10
2023-02-25T12:37:42.043Z,4.13
2023-02-25T12:40:27.715Z,3.83
2023-02-25T12:43:07.844Z,5.30
2023-02-25T12:46:09.237Z,4.97
2023-02-25T12:49:15.411Z,4.50
2023-02-25T12:52:07.477Z,3.60
2023-02-25T12:55:11.587Z,4.47
2023-02-25T12:57:49.974Z,4.70
2023-02-25T13:00:52.139Z,2.53
2023-02-25T13:03:34.176Z,5.22
2023-02-25T13:06:40.033Z,3.65
2023-02-25T13:09:20.877Z,6.35
2023-02-25T13:12:11.746Z,3.83
2023-02-25T13:14:53.519Z,5.65
2023-02-25T13:17:38.402Z,5.00
2023-02-25T13:20:36.972Z,3.20
2023-02-25T13:23:33.088Z,5.07
2023-02-25T13:26:26.343Z,5.50
2023-02-25T13:29:27.459Z,3.15
2023-02-25T13:32:19.092Z,4.65
2023-02-25T13:34:57.868Z,4.47
2023-02-25T13:37:41.085Z,8.23
2023-02-25T13:40:33.171Z,8.18
2023-02-25T13:43:34.131Z,5.18
2023-02-25T13:46:13.369Z,4.32
2023-02-25T13:49:03.595Z,4.32
2023-02-25T13:51:54.246Z,8.88
2023-02-25T13:54:43.170Z,4.43
2023-02-25T13:57:28.487Z,4.05
2023-02-25T14:00:26.893Z,2.42
2023-02-25T14:03:17.381Z,3.55
2023-02-25T14:05:59.959Z,6.65
2023-02-25T14:08:45.504Z,8.48
2023-02-25T14:11:31.516Z,2.72
2023-02-25T14:14:11.376Z,2.20
2023-02-25T14:16:55.432Z,6.13
2023-02-25T14:19:39.343Z,6.05
2023-02-25T14:22:27.590Z,4.30
2023-02-25T14:25:06.253Z,4.47
2023-02-25T14:27:42.781Z,3.80
2023-02-25T14:30:21.114Z,6.03
2023-02-25T14:33:22.367Z,6.30
2023-02-25T14:36:08.948Z,8.57
2023-02-25T14:38:57.776Z,3.97
2023-02-25T14:41:37.156Z,6.65
2023-02-25T14:44:12.773Z,9.02
2023-02-25T14:46:49.402Z,9.60
2023-02-25T14:49:26.633Z,10.20
2023-02-25T14:52:16.774Z,7.15
2023-02-25T14:55:30.125Z,5.80
2023-02-25T14:58:30.224Z,10.30
2023-02-25T15:01:28.809Z,5.00
2023-02-25T15:04:21.487Z,5.70
2023-02-25T15:07:31.956Z,9.02
2023-02-25T15:10:15.447Z,3.53
2023-02-25T15:13:14.251Z,3.83
2023-02-25T15:16:01.763Z,7.70
2023-02-25T15:19:03.857Z,4.60
2023-02-25T15:21:42.426Z,4.63
2023-02-25T15:24:33.423Z,2.70
2023-02-25T15:27:02.385Z,8.10
2023-02-25T15:29:56.286Z,4.38
2023-02-25T15:32:27.879Z,8.88
2023-02-25T15:34:59.090Z,6.20
2023-02-25T15:38:00.292Z,4.70
2023-02-25T15:40:55.457Z,4.10
2023-02-25T15:43:44.565Z,3.05
2023-02-25T15:46:44.531Z,5.15
2023-02-25T15:49:22.391Z,6.25
2023-02-25T15:51:53.156Z,6.18
2023-02-25T15:54:51.002Z,8.30
2023-02-25T15:57:41.924Z,6.15
2023-02-25T16:00:52.433Z,3.67
2023-02-25T16:03:41.619Z,6.72
2023-02-25T16:06:18.881Z,6.75
2023-02-25T16:08:53.295Z,3.75
2023-02-25T16:11:34.699Z,5.15
2023-02-25T16:14:08.753Z,2.95
2023-02-25T16:16:45.149Z,4.20
2023-02-25T16:19:18.769Z,7.38
2023-02-25T16:21:50.195Z,3.30
2023-02-25T16:24:20.386Z,4.18
2023-02-25T16:26:58.590Z,5.20
2023-02-25T16:29:39.785Z,8.48
2023-02-25T16:32:17.286Z,4.85
2023-02-25T16:34:51.421Z,6.63
2023-02-25T16:37:28.424Z,3.63
2023-02-25T16:39:58.005Z,7.78
2023-02-25T16:42:26.638Z,7.40
2023-02-25T16:45:03.698Z,6.90
2023-02-25T16:47:34.512Z,7.78
2023-02-25T16:50:07.872Z,4.93
2023-02-25T16:52:41.315Z,3.83
2023-02-25T16:55:12.832Z,1.98
2023-02-25T16:57:41.865Z,1.75
2023-02-25T17:00:21.387Z,2.80
2023-02-25T17:02:53.546Z,3.35
2023-02-25T17:05:29.031Z,2.83
2023-02-25T17:08:01.203Z,2.25
2023-02-25T17:10:33.587Z,2.17
2023-02-25T17:13:04.839Z,5.10
2023-02-25T17:15:37.853Z,1.77
2023-02-25T17:18:11.157Z,3.63
2023-02-25T17:20:40.724Z,2.63
2023-02-25T17:23:13.312Z,2.10
2023-02-25T17:25:44.791Z,6.88
2023-02-25T17:28:21.836Z,3.90
2023-02-25T17:30:53.066Z,4.72
2023-02-25T17:33:26.256Z,3.63
2023-02-25T17:35:59.404Z,4.15
2023-02-25T17:38:29.677Z,8.23
2023-02-25T17:41:01.266Z,4.18
2023-02-25T17:43:35.626Z,3.20
2023-02-25T17:46:17.139Z,7.63
2023-02-25T17:48:52.935Z,6.30
2023-02-25T17:51:30.652Z,4.82
2023-02-25T17:54:04.324Z,3.60
2023-02-25T17:56:34.247Z,4.20
2023-02-25T17:59:05.857Z,5.82
2023-02-25T18:01:48.767Z,5.32
2023-02-25T18:04:26.028Z,4.22
2023-02-25T18:06:56.284Z,3.63
2023-02-25T18:09:40.898Z,6.80
2023-02-25T18:12:21.272Z,3.42
2023-02-25T18:14:56.287Z,5.05
2023-02-25T18:17:29.258Z,3.20
2023-02-25T18:20:00.356Z,4.75
2023-02-25T18:22:35.562Z,4.75
2023-02-25T18:25:08.940Z,3.08
2023-02-25T18:27:37.992Z,3.00
2023-02-25T18:30:18.806Z,3.20
2023-02-25T18:32:49.352Z,4.43
2023-02-25T18:35:19.222Z,4.70
2023-02-25T18:37:50.204Z,4.47
2023-02-25T18:40:28.544Z,8.18
2023-02-25T18:42:58.045Z,7.35
2023-02-25T18:45:29.440Z,5.63
2023-02-25T18:48:00.216Z,6.05
2023-02-25T18:50:31.159Z,6.20
2023-02-25T18:53:00.168Z,5.05
2023-02-25T18:55:30.298Z,4.45
2023-02-25T18:57:58.880Z,7.35
2023-02-25T19:00:28.672Z,5.57
2023-02-25T19:03:01.856Z,5.40
2023-02-25T19:05:31.271Z,6.45
2023-02-25T19:07:59.900Z,5.00
2023-02-25T19:10:31.530Z,4.93
2023-02-25T19:13:04.011Z,7.38
2023-02-25T19:15:32.758Z,5.45
2023-02-25T19:18:02.777Z,7.97
2023-02-25T19:20:31.442Z,4.95
2023-02-25T19:23:00.248Z,10.05
2023-02-25T19:25:30.443Z,5.75
2023-02-25T19:27:59.414Z,6.53
2023-02-25T19:30:30.782Z,8.68
2023-02-25T19:33:02.860Z,5.93
2023-02-25T19:35:36.202Z,5.25
2023-02-25T19:38:05.214Z,5.88
2023-02-25T19:40:34.136Z,4.68
2023-02-25T19:43:02.917Z,4.30
2023-02-25T19:45:32.014Z,5.30
2023-02-25T19:48:01.883Z,4.53
2023-02-25T19:50:34.602Z,5.93
2023-02-25T19:53:06.090Z,7.25
2023-02-25T19:55:35.690Z,8.85
2023-02-25T19:58:04.355Z,8.02
2023-02-25T20:00:33.101Z,5.80
2023-02-25T20:03:01.724Z,7.65
2023-02-25T20:05:30.359Z,7.28
2023-02-25T20:07:58.918Z,9.20
2023-02-25T20:10:28.934Z,7.22
2023-02-25T20:12:57.642Z,6.90
2023-02-25T20:15:26.161Z,5.53
2023-02-25T20:17:55.712Z,6.47
2023-02-25T20:20:24.844Z,5.00
2023-02-25T20:22:53.635Z,11.02
2023-02-25T20:25:22.835Z,5.03
2023-02-25T20:27:52.772Z,5.53
2023-02-25T20:30:22.901Z,5.45
2023-02-25T20:32:53.462Z,7.72
2023-02-25T20:35:25.423Z,5.53
2023-02-25T20:38:12.525Z,5.25
2023-02-25T20:40:41.470Z,6.88
2023-02-25T20:43:12.258Z,5.78
2023-02-25T20:45:41.319Z,6.70
2023-02-25T20:48:17.850Z,7.25
2023-02-25T20:50:47.050Z,6.70
2023-02-25T20:53:15.720Z,5.80
2023-02-25T20:55:44.263Z,4.63
2023-02-25T20:58:14.187Z,6.28
2023-02-25T21:00:42.736Z,5.43
2023-02-25T21:03:11.350Z,8.10
2023-02-25T21:05:40.365Z,3.88
2023-02-25T21:08:08.932Z,6.35
2023-02-25T21:10:37.454Z,9.35
2023-02-25T21:13:06.181Z,3.50
2023-02-25T21:15:36.531Z,5.22
2023-02-25T21:18:05.175Z,6.88
2023-02-25T21:20:33.729Z,6.80
2023-02-25T21:23:02.273Z,5.60
2023-02-25T21:25:31.929Z,6.07
2023-02-25T21:28:00.410Z,5.82
2023-02-25T21:30:29.108Z,5.32
2023-02-25T21:32:59.372Z,6.53
2023-02-25T21:35:28.016Z,6.35
2023-02-25T21:37:56.510Z,7.57
2023-02-25T21:40:25.069Z,5.43
2023-02-25T21:42:55.374Z,4.70
2023-02-25T21:45:23.847Z,5.07
2023-02-25T21:47:52.480Z,8.30
2023-02-25T21:50:22.420Z,4.53
2023-02-25T21:52:51.136Z,8.63
2023-02-25T21:55:19.720Z,5.70
2023-02-25T21:57:48.329Z,6.60
2023-02-25T22:00:17.406Z,5.78
2023-02-25T22:02:45.916Z,6.40
2023-02-25T22:05:15.850Z,6.20
2023-02-25T22:07:45.740Z,10.48
2023-02-25T22:10:15.148Z,6.68
2023-02-25T22:12:43.670Z,7.88
2023-02-25T22:15:12.770Z,6.75
2023-02-25T22:17:41.415Z,5.30
2023-02-25T22:20:11.479Z,7.93
2023-02-25T22:22:39.951Z,9.85
2023-02-25T22:25:10.145Z,8.68
2023-02-25T22:27:38.733Z,8.93
2023-02-25T22:30:08.758Z,7.85
2023-02-25T22:32:37.560Z,9.48
2023-02-25T22:35:07.615Z,8.27
2023-02-25T22:37:36.190Z,9.70
2023-02-25T22:40:05.370Z,8.32
2023-02-25T22:42:35.261Z,10.02
2023-02-25T22:45:04.037Z,8.35
2023-02-25T22:47:32.968Z,9.65
2023-02-25T22:50:01.473Z,7.53
2023-02-25T22:52:30.252Z,6.60
2023-02-25T22:54:58.972Z,10.32
2023-02-25T22:57:27.542Z,12.57
2023-02-25T22:59:57.467Z,9.10
2023-02-25T23:02:26.102Z,8.82
2023-02-25T23:04:54.632Z,13.80
2023-02-25T23:07:23.221Z,7.65
2023-02-25T23:09:51.739Z,6.82
2023-02-25T23:12:21.417Z,10.60
2023-02-25T23:14:50.072Z,4.70
2023-02-25T23:17:20.191Z,7.63
2023-02-25T23:19:48.714Z,8.25
2023-02-25T23:22:24.874Z,7.32
2023-02-25T23:24:53.345Z,14.43
2023-02-25T23:27:21.859Z,10.35
2023-02-25T23:29:50.423Z,6.38
2023-02-25T23:32:20.534Z,6.20
2023-02-25T23:34:49.620Z,6.18
2023-02-25T23:37:18.187Z,7.88
2023-02-25T23:39:46.868Z,8.20
2023-02-25T23:42:15.435Z,9.90
2023-02-25T23:44:44.004Z,5.38
2023-02-25T23:47:12.558Z,7.35
2023-02-25T23:49:42.748Z,10.18
2023-02-25T23:52:11.288Z,11.30
2023-02-25T23:54:40.012Z,6.40
2023-02-25T23:57:08.500Z,7.15
2023-02-25T23:59:37.383Z,5.35
